createdAt,value
2019-03-08T00:01:19.481Z,8.73
2019-03-08T00:08:21.414Z,6.97
2019-03-08T00:10:51.707Z,4.70
2019-03-08T00:16:59.205Z,3.98
2019-03-08T00:19:53.883Z,6.03
2019-03-08T00:22:24.108Z,5.42
2019-03-08T00:24:56.015Z,4.45
2019-03-08T00:27:45.202Z,9.48
2019-03-08T00:30:18.773Z,5.40
2019-03-08T00:46:17.072Z,5.67
2019-03-08T00:48:47.663Z,7.40
2019-03-08T00:51:25.106Z,6.45
2019-03-08T00:53:55.332Z,6.20
2019-03-08T00:56:25.668Z,6.58
2019-03-08T00:58:55.916Z,8.00
2019-03-08T01:01:27.134Z,6.53
2019-03-08T01:03:57.784Z,4.37
2019-03-08T01:06:28.079Z,3.77
2019-03-08T01:08:58.322Z,4.90
2019-03-08T01:11:28.844Z,6.40
2019-03-08T01:13:59.479Z,3.50
2019-03-08T01:16:29.770Z,3.02
2019-03-08T01:19:01.016Z,5.03
2019-03-08T01:21:31.699Z,6.00
2019-03-08T01:24:01.921Z,5.53
2019-03-08T01:26:32.641Z,3.40
2019-03-08T01:29:02.933Z,3.50
2019-03-08T01:31:33.245Z,5.12
2019-03-08T01:34:03.518Z,5.95
2019-03-08T01:36:33.876Z,3.52
2019-03-08T01:39:06.667Z,4.35
2019-03-08T01:41:38.129Z,5.90
2019-03-08T01:44:09.424Z,5.25
2019-03-08T01:46:39.709Z,4.08
2019-03-08T01:49:10.359Z,5.95
2019-03-08T01:51:40.816Z,5.62
2019-03-08T01:54:11.139Z,2.75
2019-03-08T01:56:42.913Z,4.62
2019-03-08T01:59:13.565Z,5.92
2019-03-08T02:01:44.018Z,4.92
2019-03-08T02:04:15.422Z,3.17
2019-03-08T02:06:45.743Z,3.90
2019-03-08T02:09:16.350Z,4.92
2019-03-08T02:11:49.457Z,3.00
2019-03-08T02:14:19.797Z,4.72
2019-03-08T02:16:50.104Z,5.30
2019-03-08T02:19:20.401Z,3.27
2019-03-08T02:21:50.663Z,6.22
2019-03-08T02:24:20.880Z,4.42
2019-03-08T02:26:52.143Z,2.95
2019-03-08T02:29:23.577Z,3.50
2019-03-08T02:31:59.760Z,4.80
2019-03-08T02:34:31.055Z,3.52
2019-03-08T02:37:01.518Z,3.08
2019-03-08T02:39:31.830Z,4.12
2019-03-08T02:42:02.073Z,5.03
2019-03-08T02:44:32.427Z,3.62
2019-03-08T02:47:02.855Z,4.40
2019-03-08T02:49:33.224Z,4.45
2019-03-08T02:52:03.502Z,7.45
2019-03-08T02:54:34.986Z,4.22
2019-03-08T02:57:05.219Z,5.03
2019-03-08T02:59:35.606Z,7.62
2019-03-08T03:02:05.821Z,6.65
2019-03-08T03:04:36.202Z,2.95
2019-03-08T03:07:06.675Z,5.75
2019-03-08T03:09:36.927Z,5.95
2019-03-08T03:12:07.349Z,3.92
2019-03-08T03:14:44.400Z,3.12
2019-03-08T03:17:14.890Z,3.80
2019-03-08T03:19:45.566Z,4.78
2019-03-08T03:22:15.818Z,3.45
2019-03-08T03:24:46.176Z,4.15
2019-03-08T03:27:16.432Z,3.92
2019-03-08T03:29:47.076Z,6.92
2019-03-08T03:32:17.343Z,5.22
2019-03-08T03:34:47.692Z,4.05
2019-03-08T03:37:17.932Z,4.62
2019-03-08T03:39:48.284Z,3.45
2019-03-08T03:42:18.547Z,3.98
2019-03-08T03:44:48.873Z,3.77
2019-03-08T03:47:19.132Z,4.25
2019-03-08T03:49:49.461Z,4.65
2019-03-08T03:52:19.758Z,4.00
2019-03-08T03:54:50.216Z,4.05
2019-03-08T03:57:20.519Z,4.20
2019-03-08T03:59:51.150Z,4.55
2019-03-08T04:02:22.216Z,3.62
2019-03-08T04:04:52.690Z,3.85
2019-03-08T04:07:22.996Z,9.38
2019-03-08T04:09:54.244Z,5.10
2019-03-08T04:12:24.552Z,7.58
2019-03-08T04:15:01.440Z,3.72
2019-03-08T04:17:33.085Z,4.60
2019-03-08T04:20:04.492Z,3.55
2019-03-08T04:22:34.870Z,4.17
2019-03-08T04:25:07.040Z,8.00
2019-03-08T04:27:37.325Z,4.87
2019-03-08T04:30:10.758Z,3.27
2019-03-08T04:35:10.624Z,4.08
2019-03-08T04:37:40.938Z,5.85
2019-03-08T04:40:12.625Z,5.42
2019-03-08T04:42:42.964Z,6.17
2019-03-08T04:45:17.927Z,5.37
2019-03-08T04:47:48.518Z,3.92
2019-03-08T04:50:19.914Z,3.40
2019-03-08T04:52:50.188Z,7.08
2019-03-08T04:55:21.430Z,6.10
2019-03-08T04:57:51.858Z,4.10
2019-03-08T05:00:25.114Z,3.17
2019-03-08T05:02:54.524Z,7.92
2019-03-08T05:05:25.474Z,2.22
2019-03-08T05:07:55.766Z,5.10
2019-03-08T05:10:26.348Z,5.17
2019-03-08T05:12:56.677Z,7.20
2019-03-08T05:15:26.974Z,7.05
2019-03-08T05:17:58.488Z,4.05
2019-03-08T05:20:30.093Z,9.43
2019-03-08T05:23:00.700Z,8.28
2019-03-08T05:25:30.941Z,6.20
2019-03-08T05:28:01.277Z,3.67
2019-03-08T05:30:31.527Z,6.08
2019-03-08T05:33:01.811Z,4.53
2019-03-08T05:35:32.583Z,10.95
2019-03-08T05:38:02.857Z,9.35
2019-03-08T05:40:33.151Z,13.13
2019-03-08T05:43:04.125Z,6.62
2019-03-08T05:45:34.567Z,3.83
2019-03-08T05:48:04.918Z,8.18
2019-03-08T05:50:35.304Z,4.85
2019-03-08T05:53:07.107Z,7.40
2019-03-08T05:55:37.406Z,18.73
2019-03-08T05:58:07.811Z,5.03
2019-03-08T06:00:38.146Z,6.62
2019-03-08T06:03:08.652Z,8.73
2019-03-08T06:05:39.144Z,6.05
2019-03-08T06:08:09.502Z,9.15
2019-03-08T06:10:39.757Z,10.93
2019-03-08T06:13:10.616Z,7.30
2019-03-08T06:15:42.303Z,5.47
2019-03-08T06:18:13.210Z,7.65
2019-03-08T06:20:43.467Z,7.87
2019-03-08T06:23:13.898Z,9.98
2019-03-08T06:25:44.301Z,10.93
2019-03-08T06:28:14.621Z,12.53
2019-03-08T06:30:44.828Z,8.68
2019-03-08T06:33:17.020Z,17.15
2019-03-08T06:35:47.291Z,12.35
2019-03-08T06:38:17.538Z,6.55
2019-03-08T06:40:47.828Z,8.80
2019-03-08T06:43:18.161Z,7.00
2019-03-08T06:45:52.838Z,4.53
2019-03-08T06:50:52.295Z,8.00
2019-03-08T06:53:22.618Z,9.83
2019-03-08T06:55:52.876Z,4.78
2019-03-08T06:58:34.031Z,8.65
2019-03-08T07:01:05.851Z,8.68
2019-03-08T07:03:36.175Z,6.78
2019-03-08T07:06:06.777Z,10.03
2019-03-08T07:08:38.590Z,7.97
2019-03-08T07:11:08.847Z,9.35
2019-03-08T07:13:39.767Z,6.37
2019-03-08T07:16:13.013Z,8.90
2019-03-08T07:18:42.108Z,11.35
2019-03-08T07:21:32.627Z,4.10
2019-03-08T07:24:07.405Z,8.85
2019-03-08T07:26:39.308Z,12.18
2019-03-08T07:29:20.962Z,8.40
2019-03-08T07:31:52.858Z,12.23
2019-03-08T07:34:43.163Z,10.10
2019-03-08T07:37:18.078Z,18.40
2019-03-08T07:39:49.940Z,6.17
2019-03-08T07:42:38.504Z,4.90
2019-03-08T07:45:28.119Z,9.53
2019-03-08T07:48:15.284Z,12.30
2019-03-08T07:50:47.542Z,8.28
2019-03-08T07:53:38.427Z,9.15
2019-03-08T07:56:22.325Z,7.72
2019-03-08T07:59:06.128Z,6.70
2019-03-08T08:01:38.007Z,4.87
2019-03-08T08:04:09.892Z,5.17
2019-03-08T08:06:53.684Z,5.20
2019-03-08T08:09:25.591Z,7.70
2019-03-08T08:12:07.008Z,10.08
2019-03-08T08:14:54.120Z,11.28
2019-03-08T08:17:28.695Z,8.15
2019-03-08T08:20:00.629Z,11.18
2019-03-08T08:22:41.743Z,6.00
2019-03-08T08:25:25.744Z,4.53
2019-03-08T08:28:07.388Z,9.35
2019-03-08T08:30:45.291Z,12.28
2019-03-08T08:33:26.367Z,12.65
2019-03-08T08:36:00.903Z,10.00
2019-03-08T08:38:42.749Z,16.73
2019-03-08T08:41:26.959Z,7.80
2019-03-08T08:43:59.175Z,18.70
2019-03-08T08:46:37.579Z,19.35
2019-03-08T08:49:18.631Z,24.10
2019-03-08T08:52:07.095Z,22.82
2019-03-08T08:54:48.276Z,7.70
2019-03-08T08:57:22.829Z,12.70
2019-03-08T08:59:57.320Z,20.77
2019-03-08T09:02:32.218Z,12.33
2019-03-08T09:05:04.082Z,14.25
2019-03-08T09:07:39.296Z,14.18
2019-03-08T09:10:15.380Z,12.88
2019-03-08T09:12:50.003Z,9.33
2019-03-08T09:15:34.531Z,9.73
2019-03-08T09:18:07.111Z,8.85
2019-03-08T09:20:48.087Z,14.50
2019-03-08T09:23:20.702Z,8.35
2019-03-08T09:25:52.800Z,7.42
2019-03-08T09:28:24.672Z,6.65
2019-03-08T09:30:59.471Z,10.32
2019-03-08T09:33:40.480Z,6.95
2019-03-08T09:36:12.380Z,13.50
2019-03-08T09:38:44.243Z,9.38
2019-03-08T09:41:16.225Z,9.98
2019-03-08T09:43:48.093Z,6.80
2019-03-08T09:46:20.904Z,10.15
2019-03-08T09:49:01.782Z,5.37
2019-03-08T09:51:33.694Z,5.15
2019-03-08T09:54:05.600Z,6.28
2019-03-08T09:56:37.498Z,13.50
2019-03-08T09:59:27.462Z,8.98
2019-03-08T10:01:59.783Z,9.78
2019-03-08T10:04:43.690Z,5.53
2019-03-08T10:07:22.006Z,19.35
2019-03-08T10:10:00.366Z,4.95
2019-03-08T10:12:35.270Z,8.95
2019-03-08T10:15:29.748Z,8.03
2019-03-08T10:18:16.491Z,10.90
2019-03-08T10:21:05.660Z,9.55
2019-03-08T10:23:51.218Z,9.58
2019-03-08T10:29:10.717Z,9.45
2019-03-08T10:31:58.995Z,18.10
2019-03-08T10:34:36.842Z,15.63
2019-03-08T10:37:08.744Z,5.65
2019-03-08T10:39:58.797Z,11.83
2019-03-08T10:42:39.659Z,9.65
2019-03-08T10:45:12.213Z,8.75
2019-03-08T10:47:55.944Z,23.62
2019-03-08T10:50:30.105Z,12.93
2019-03-08T10:53:05.096Z,7.92
2019-03-08T10:55:53.415Z,13.10
2019-03-08T10:58:41.715Z,8.08
2019-03-08T11:01:30.238Z,11.18
2019-03-08T11:04:02.203Z,20.05
2019-03-08T11:06:37.991Z,11.55
2019-03-08T11:09:12.912Z,12.05
2019-03-08T11:11:44.774Z,14.10
2019-03-08T11:14:19.571Z,10.20
2019-03-08T11:16:57.430Z,8.08
2019-03-08T11:19:29.316Z,5.42
2019-03-08T11:22:10.426Z,6.62
2019-03-08T11:24:42.308Z,8.78
2019-03-08T11:27:14.214Z,9.63
2019-03-08T11:29:46.082Z,9.00
2019-03-08T11:32:23.735Z,9.65
2019-03-08T11:34:58.654Z,9.58
2019-03-08T11:37:37.735Z,6.10
2019-03-08T11:40:12.540Z,6.78
2019-03-08T11:42:53.252Z,9.93
2019-03-08T11:45:28.582Z,8.83
2019-03-08T11:48:12.689Z,4.53
2019-03-08T11:51:00.890Z,10.05
2019-03-08T11:53:42.056Z,8.15
2019-03-08T11:56:22.776Z,4.90
2019-03-08T11:59:03.714Z,5.22
2019-03-08T12:01:41.653Z,9.35
2019-03-08T12:04:13.530Z,17.07
2019-03-08T12:06:45.522Z,11.83
2019-03-08T12:09:33.695Z,10.03
2019-03-08T12:12:08.591Z,3.17
2019-03-08T12:14:45.750Z,8.20
2019-03-08T12:17:23.749Z,9.70
2019-03-08T12:19:55.682Z,3.80
2019-03-08T12:22:33.721Z,9.23
2019-03-08T12:25:15.800Z,5.83
2019-03-08T12:27:56.354Z,7.58
2019-03-08T12:30:44.901Z,9.03
2019-03-08T12:33:22.675Z,8.93
2019-03-08T12:36:04.282Z,6.95
2019-03-08T12:38:42.299Z,5.87
2019-03-08T12:41:26.359Z,9.05
2019-03-08T12:46:53.691Z,5.30
2019-03-08T12:49:37.768Z,10.80
2019-03-08T12:52:10.269Z,11.25
2019-03-08T12:54:57.384Z,10.30
2019-03-08T12:57:35.047Z,7.62
2019-03-08T13:00:15.888Z,5.00
2019-03-08T13:02:57.350Z,10.95
2019-03-08T13:05:29.188Z,19.15
2019-03-08T13:08:02.330Z,9.95
2019-03-08T13:10:32.643Z,6.25
2019-03-08T13:13:02.971Z,8.40
2019-03-08T13:15:33.155Z,13.25
2019-03-08T13:18:03.455Z,8.70
2019-03-08T13:20:33.842Z,15.68
2019-03-08T13:23:04.342Z,11.33
2019-03-08T13:25:34.634Z,11.73
2019-03-08T13:28:04.923Z,6.37
2019-03-08T13:30:35.211Z,4.55
2019-03-08T13:33:05.555Z,8.80
2019-03-08T13:35:35.789Z,15.80
2019-03-08T13:38:06.956Z,6.92
2019-03-08T13:40:37.561Z,6.75
2019-03-08T13:43:07.871Z,12.10
2019-03-08T13:45:38.062Z,11.57
2019-03-08T13:48:08.418Z,11.25
2019-03-08T13:50:38.695Z,9.48
2019-03-08T13:53:09.015Z,12.53
2019-03-08T13:55:39.267Z,15.08
2019-03-08T13:58:09.575Z,11.83
2019-03-08T14:00:39.867Z,11.45
2019-03-08T14:03:10.636Z,9.95
2019-03-08T14:05:41.074Z,16.87
2019-03-08T14:08:11.362Z,14.33
2019-03-08T14:10:41.607Z,14.23
2019-03-08T14:13:11.978Z,21.15
2019-03-08T14:15:42.391Z,13.45
2019-03-08T14:18:12.715Z,9.63
2019-03-08T14:20:43.055Z,9.00
2019-03-08T14:23:13.685Z,16.75
2019-03-08T14:25:44.056Z,12.47
2019-03-08T14:28:15.635Z,12.23
2019-03-08T14:30:57.374Z,12.10
2019-03-08T14:33:20.601Z,18.25
2019-03-08T14:35:50.876Z,11.68
2019-03-08T14:40:58.777Z,10.38
2019-03-08T14:43:41.119Z,10.05
2019-03-08T14:46:22.159Z,10.78
2019-03-08T14:48:52.607Z,13.53
2019-03-08T14:51:22.886Z,15.23
2019-03-08T14:53:53.169Z,12.58
2019-03-08T14:56:23.557Z,11.18
2019-03-08T14:58:53.874Z,8.70
2019-03-08T15:01:24.257Z,7.00
2019-03-08T15:03:56.607Z,7.33
2019-03-08T15:06:27.968Z,9.70
2019-03-08T15:08:58.520Z,6.95
2019-03-08T15:11:29.143Z,10.15
2019-03-08T15:13:59.447Z,9.90
2019-03-08T15:16:29.771Z,16.77
2019-03-08T15:19:03.756Z,6.83
2019-03-08T15:21:33.186Z,11.48
2019-03-08T15:24:04.724Z,14.37
2019-03-08T15:26:35.011Z,16.05
2019-03-08T15:29:05.335Z,17.07
2019-03-08T15:31:35.643Z,14.05
2019-03-08T15:34:06.052Z,16.32
2019-03-08T15:36:36.498Z,18.57
2019-03-08T15:39:10.313Z,13.00
2019-03-08T15:41:40.573Z,12.60
2019-03-08T15:44:10.816Z,11.50
2019-03-08T15:46:41.523Z,17.73
2019-03-08T15:49:11.809Z,14.68
2019-03-08T15:51:42.107Z,23.05
2019-03-08T15:54:12.798Z,13.85
2019-03-08T15:56:43.027Z,20.62
2019-03-08T15:59:13.352Z,15.83
2019-03-08T16:01:43.655Z,14.45
2019-03-08T16:04:13.931Z,9.13
2019-03-08T16:06:45.467Z,7.47
2019-03-08T16:09:16.056Z,17.07
2019-03-08T16:11:46.374Z,8.88
2019-03-08T16:14:16.791Z,14.40
2019-03-08T16:16:47.056Z,11.28
2019-03-08T16:19:20.964Z,12.88
2019-03-08T16:21:50.561Z,15.28
2019-03-08T16:24:21.138Z,10.90
2019-03-08T16:26:51.380Z,9.28
2019-03-08T16:29:21.634Z,8.93
2019-03-08T16:31:56.025Z,6.75
2019-03-08T16:34:26.121Z,6.90
2019-03-08T16:36:58.009Z,6.10
2019-03-08T16:39:33.595Z,5.12
2019-03-08T16:42:14.436Z,5.60
2019-03-08T16:45:00.960Z,5.92
2019-03-08T16:47:42.495Z,4.22
2019-03-08T16:50:17.828Z,5.75
2019-03-08T16:52:49.444Z,5.47
2019-03-08T16:55:22.863Z,3.80
2019-03-08T16:58:11.341Z,9.20
2019-03-08T17:00:55.220Z,9.30
2019-03-08T17:03:27.128Z,7.45
2019-03-08T17:06:08.037Z,21.95
2019-03-08T17:08:52.943Z,118.80
2019-03-08T17:11:24.844Z,35.85
2019-03-08T17:14:09.064Z,10.60
2019-03-08T17:19:17.267Z,8.00
2019-03-08T17:21:49.993Z,7.53
2019-03-08T17:24:24.788Z,9.05
2019-03-08T17:26:56.678Z,12.07
2019-03-08T17:29:29.843Z,9.55
2019-03-08T17:32:07.710Z,14.03
2019-03-08T17:34:56.180Z,14.33
2019-03-08T17:37:44.387Z,12.68
2019-03-08T17:40:21.865Z,12.28
2019-03-08T17:42:56.595Z,11.35
2019-03-08T17:45:34.733Z,11.65
2019-03-08T17:48:06.788Z,12.35
2019-03-08T17:50:47.321Z,13.30
2019-03-08T17:53:40.803Z,11.15
2019-03-08T17:56:12.855Z,11.83
2019-03-08T17:58:51.160Z,13.13
2019-03-08T18:01:22.213Z,11.00
2019-03-08T18:04:02.872Z,12.78
2019-03-08T18:06:39.284Z,9.70
2019-03-08T18:09:12.385Z,12.47
2019-03-08T18:11:48.652Z,11.20
2019-03-08T18:14:20.584Z,12.43
2019-03-08T18:16:52.413Z,13.08
2019-03-08T18:19:24.470Z,16.37
2019-03-08T18:21:58.870Z,25.90
2019-03-08T18:24:30.869Z,15.40
2019-03-08T18:27:08.794Z,15.23
2019-03-08T18:29:43.578Z,14.95
2019-03-08T18:32:27.206Z,16.32
2019-03-08T18:35:15.475Z,13.58
2019-03-08T18:37:47.503Z,13.85
2019-03-08T18:40:27.879Z,10.85
2019-03-08T18:43:00.335Z,11.93
2019-03-08T18:45:38.256Z,10.80
2019-03-08T18:48:12.943Z,12.63
2019-03-08T18:50:50.901Z,8.60
2019-03-08T18:53:23.114Z,12.93
2019-03-08T18:56:12.899Z,16.05
2019-03-08T18:58:55.268Z,16.17
2019-03-08T19:01:41.115Z,14.87
2019-03-08T19:06:52.528Z,13.43
2019-03-08T19:09:41.315Z,9.68
2019-03-08T19:12:18.858Z,11.35
2019-03-08T19:14:48.340Z,18.57
2019-03-08T19:17:20.608Z,12.18
2019-03-08T19:19:58.462Z,18.42
2019-03-08T19:23:04.854Z,16.65
2019-03-08T19:25:55.226Z,18.57
2019-03-08T19:28:34.224Z,15.93
2019-03-08T19:31:06.090Z,19.82
2019-03-08T19:33:46.845Z,14.13
2019-03-08T19:36:35.148Z,16.62
2019-03-08T19:39:11.450Z,16.95
2019-03-08T19:41:43.523Z,14.07
2019-03-08T19:44:34.085Z,9.78
2019-03-08T19:47:09.074Z,12.03
2019-03-08T19:49:41.281Z,12.98
2019-03-08T19:52:23.916Z,13.08
2019-03-08T19:54:58.983Z,14.87
2019-03-08T19:57:36.975Z,12.20
2019-03-08T20:00:32.658Z,12.45
2019-03-08T20:03:07.551Z,13.03
2019-03-08T20:05:55.856Z,14.53
2019-03-08T20:08:36.680Z,15.10
2019-03-08T20:11:08.611Z,13.58
2019-03-08T20:13:56.622Z,14.70
2019-03-08T20:16:45.752Z,14.38
2019-03-08T20:19:18.101Z,15.60
2019-03-08T20:21:53.132Z,11.60
2019-03-08T20:24:40.184Z,18.55
2019-03-08T20:27:20.744Z,14.78
2019-03-08T20:29:52.820Z,16.85
2019-03-08T20:32:24.783Z,17.10
2019-03-08T20:35:02.641Z,21.27
2019-03-08T20:37:38.955Z,17.05
2019-03-08T20:40:13.737Z,15.05
2019-03-08T20:42:55.913Z,13.28
2019-03-08T20:45:46.020Z,19.77
2019-03-08T20:48:16.458Z,28.17
2019-03-08T20:50:46.783Z,16.95
2019-03-08T20:53:17.224Z,17.85
2019-03-08T20:55:47.722Z,20.12
2019-03-08T20:58:18.048Z,22.70
2019-03-08T21:00:48.361Z,22.62
2019-03-08T21:03:18.796Z,22.20
2019-03-08T21:05:50.730Z,21.42
2019-03-08T21:08:21.318Z,22.82
2019-03-08T21:10:51.624Z,22.58
2019-03-08T21:13:21.942Z,22.87
2019-03-08T21:15:52.492Z,24.35
2019-03-08T21:18:22.821Z,22.55
2019-03-08T21:20:53.140Z,24.15
2019-03-08T21:23:23.458Z,28.87
2019-03-08T21:25:55.066Z,20.27
2019-03-08T21:28:25.834Z,22.85
2019-03-08T21:30:56.560Z,25.37
2019-03-08T21:33:26.866Z,28.00
2019-03-08T21:35:57.396Z,20.40
2019-03-08T21:38:27.616Z,27.30
2019-03-08T21:40:58.219Z,23.60
2019-03-08T21:43:28.786Z,26.65
2019-03-08T21:45:58.988Z,26.75
2019-03-08T21:48:29.323Z,29.90
2019-03-08T21:50:59.543Z,31.57
2019-03-08T21:53:29.817Z,25.30
2019-03-08T21:56:00.003Z,28.05
2019-03-08T21:58:30.333Z,31.60
2019-03-08T22:01:00.629Z,31.60
2019-03-08T22:03:31.343Z,31.40
2019-03-08T22:06:01.538Z,29.80
2019-03-08T22:08:31.878Z,29.32
2019-03-08T22:11:07.019Z,31.70
2019-03-08T22:13:37.360Z,37.95
2019-03-08T22:16:07.635Z,37.50
2019-03-08T22:18:38.071Z,30.52
2019-03-08T22:21:08.756Z,32.83
2019-03-08T22:23:39.055Z,30.75
2019-03-08T22:26:09.349Z,30.37
2019-03-08T22:28:40.644Z,31.60
2019-03-08T22:31:10.948Z,31.93
2019-03-08T22:33:42.338Z,36.40
2019-03-08T22:36:12.849Z,30.12
2019-03-08T22:38:43.252Z,33.70
2019-03-08T22:41:13.554Z,34.95
2019-03-08T22:43:43.772Z,42.38
2019-03-08T22:46:14.178Z,39.20
2019-03-08T22:48:44.464Z,37.23
2019-03-08T22:51:14.760Z,33.60
2019-03-08T22:53:45.356Z,30.70
2019-03-08T22:56:15.614Z,27.82
2019-03-08T22:58:46.547Z,29.07
2019-03-08T23:01:19.958Z,28.32
2019-03-08T23:03:52.415Z,26.52
2019-03-08T23:06:22.680Z,30.88
2019-03-08T23:08:52.866Z,32.38
2019-03-08T23:11:23.673Z,35.92
2019-03-08T23:13:54.174Z,30.02
2019-03-08T23:16:32.130Z,32.00
2019-03-08T23:19:02.449Z,34.43
2019-03-08T23:21:33.141Z,31.07
2019-03-08T23:24:05.998Z,28.17
2019-03-08T23:26:54.756Z,27.50
2019-03-08T23:29:35.636Z,26.20
2019-03-08T23:32:19.612Z,26.57
2019-03-08T23:37:19.229Z,31.35
2019-03-08T23:39:49.759Z,30.97
2019-03-08T23:42:20.050Z,25.08
2019-03-08T23:44:51.479Z,27.65
2019-03-08T23:47:21.881Z,24.95
2019-03-08T23:49:52.244Z,26.05
2019-03-08T23:52:22.524Z,25.40
2019-03-08T23:54:52.936Z,22.50
2019-03-08T23:57:23.132Z,22.77
2019-03-08T23:59:53.380Z,23.30
